sensor_id;sensor_type;location;lat;lon;timestamp;P1;durP1;ratioP1;P2;durP2;ratioP2
52508;SDS011;38420;53.150;6.370;2022-11-20T00:01:07;34.08;;;19.20;;
52508;SDS011;38420;53.150;6.370;2022-11-20T00:06:04;30.85;;;17.73;;
52508;SDS011;38420;53.150;6.370;2022-11-20T00:08:31;33.38;;;18.40;;
52508;SDS011;38420;53.150;6.370;2022-11-20T00:10:57;32.60;;;17.92;;
52508;SDS011;38420;53.150;6.370;2022-11-20T00:13:22;29.95;;;17.88;;
52508;SDS011;38420;53.150;6.370;2022-11-20T00:15:48;33.15;;;18.80;;
52508;SDS011;38420;53.150;6.370;2022-11-20T00:18:21;30.70;;;17.70;;
52508;SDS011;38420;53.150;6.370;2022-11-20T00:20:46;32.53;;;17.92;;
52508;SDS011;38420;53.150;6.370;2022-11-20T00:23:12;31.20;;;17.02;;
52508;SDS011;38420;53.150;6.370;2022-11-20T00:25:37;28.58;;;17.20;;
52508;SDS011;38420;53.150;6.370;2022-11-20T00:28:03;35.65;;;19.30;;
52508;SDS011;38420;53.150;6.370;2022-11-20T00:30:28;35.15;;;18.05;;
52508;SDS011;38420;53.150;6.370;2022-11-20T00:32:55;32.90;;;18.20;;
52508;SDS011;38420;53.150;6.370;2022-11-20T00:35:21;31.23;;;18.00;;
52508;SDS011;38420;53.150;6.370;2022-11-20T00:37:47;31.27;;;17.77;;
52508;SDS011;38420;53.150;6.370;2022-11-20T00:40:12;34.05;;;19.00;;
52508;SDS011;38420;53.150;6.370;2022-11-20T00:42:38;34.15;;;17.80;;
52508;SDS011;38420;53.150;6.370;2022-11-20T00:45:04;30.08;;;18.70;;
52508;SDS011;38420;53.150;6.370;2022-11-20T00:47:30;29.38;;;17.08;;
52508;SDS011;38420;53.150;6.370;2022-11-20T00:49:55;27.75;;;17.27;;
52508;SDS011;38420;53.150;6.370;2022-11-20T00:52:21;28.00;;;17.05;;
52508;SDS011;38420;53.150;6.370;2022-11-20T00:54:46;28.85;;;17.95;;
52508;SDS011;38420;53.150;6.370;2022-11-20T00:57:12;31.65;;;17.88;;
52508;SDS011;38420;53.150;6.370;2022-11-20T00:59:38;27.02;;;17.67;;
52508;SDS011;38420;53.150;6.370;2022-11-20T01:02:03;26.08;;;16.55;;
52508;SDS011;38420;53.150;6.370;2022-11-20T01:04:29;32.70;;;17.65;;
52508;SDS011;38420;53.150;6.370;2022-11-20T01:06:55;28.13;;;17.48;;
52508;SDS011;38420;53.150;6.370;2022-11-20T01:09:20;30.25;;;18.38;;
52508;SDS011;38420;53.150;6.370;2022-11-20T01:11:46;32.20;;;17.55;;
52508;SDS011;38420;53.150;6.370;2022-11-20T01:14:12;31.70;;;18.10;;
52508;SDS011;38420;53.150;6.370;2022-11-20T01:16:50;29.65;;;17.63;;
52508;SDS011;38420;53.150;6.370;2022-11-20T01:19:21;33.97;;;17.08;;
52508;SDS011;38420;53.150;6.370;2022-11-20T01:21:49;32.25;;;18.30;;
52508;SDS011;38420;53.150;6.370;2022-11-20T01:24:16;30.05;;;18.02;;
52508;SDS011;38420;53.150;6.370;2022-11-20T01:26:43;28.25;;;17.83;;
52508;SDS011;38420;53.150;6.370;2022-11-20T01:29:14;31.83;;;17.83;;
52508;SDS011;38420;53.150;6.370;2022-11-20T01:31:42;30.10;;;17.25;;
52508;SDS011;38420;53.150;6.370;2022-11-20T01:34:12;30.45;;;16.08;;
52508;SDS011;38420;53.150;6.370;2022-11-20T01:36:39;25.05;;;15.88;;
52508;SDS011;38420;53.150;6.370;2022-11-20T01:39:07;27.17;;;15.85;;
52508;SDS011;38420;53.150;6.370;2022-11-20T01:41:36;25.67;;;16.58;;
52508;SDS011;38420;53.150;6.370;2022-11-20T01:44:22;23.63;;;15.48;;
52508;SDS011;38420;53.150;6.370;2022-11-20T01:47:08;29.20;;;16.30;;
52508;SDS011;38420;53.150;6.370;2022-11-20T01:49:38;28.17;;;15.55;;
52508;SDS011;38420;53.150;6.370;2022-11-20T01:52:07;23.98;;;14.50;;
52508;SDS011;38420;53.150;6.370;2022-11-20T01:54:42;29.60;;;16.13;;
52508;SDS011;38420;53.150;6.370;2022-11-20T01:57:12;27.33;;;15.93;;
52508;SDS011;38420;53.150;6.370;2022-11-20T01:59:41;25.70;;;15.32;;
52508;SDS011;38420;53.150;6.370;2022-11-20T02:02:12;26.60;;;14.23;;
52508;SDS011;38420;53.150;6.370;2022-11-20T02:04:39;28.88;;;15.50;;
52508;SDS011;38420;53.150;6.370;2022-11-20T02:07:04;28.27;;;16.50;;
52508;SDS011;38420;53.150;6.370;2022-11-20T02:09:30;26.73;;;15.27;;
52508;SDS011;38420;53.150;6.370;2022-11-20T02:11:56;28.55;;;15.85;;
52508;SDS011;38420;53.150;6.370;2022-11-20T02:14:23;25.52;;;15.38;;
52508;SDS011;38420;53.150;6.370;2022-11-20T02:16:50;25.48;;;15.75;;
52508;SDS011;38420;53.150;6.370;2022-11-20T02:24:25;26.63;;;15.82;;
52508;SDS011;38420;53.150;6.370;2022-11-20T02:26:54;26.27;;;15.50;;
52508;SDS011;38420;53.150;6.370;2022-11-20T02:29:26;27.05;;;15.35;;
52508;SDS011;38420;53.150;6.370;2022-11-20T02:32:17;30.48;;;16.40;;
52508;SDS011;38420;53.150;6.370;2022-11-20T02:34:47;29.52;;;16.35;;
52508;SDS011;38420;53.150;6.370;2022-11-20T02:37:12;28.70;;;15.02;;
52508;SDS011;38420;53.150;6.370;2022-11-20T02:39:38;25.02;;;14.88;;
52508;SDS011;38420;53.150;6.370;2022-11-20T02:42:05;26.70;;;14.73;;
52508;SDS011;38420;53.150;6.370;2022-11-20T02:44:31;24.33;;;14.75;;
52508;SDS011;38420;53.150;6.370;2022-11-20T02:46:57;25.45;;;14.57;;
52508;SDS011;38420;53.150;6.370;2022-11-20T02:49:23;26.98;;;14.82;;
52508;SDS011;38420;53.150;6.370;2022-11-20T02:51:49;28.80;;;14.85;;
52508;SDS011;38420;53.150;6.370;2022-11-20T02:54:15;27.85;;;16.27;;
52508;SDS011;38420;53.150;6.370;2022-11-20T02:56:40;29.92;;;16.92;;
52508;SDS011;38420;53.150;6.370;2022-11-20T02:59:06;25.60;;;14.68;;
52508;SDS011;38420;53.150;6.370;2022-11-20T03:01:32;27.65;;;16.25;;
52508;SDS011;38420;53.150;6.370;2022-11-20T03:03:57;26.75;;;15.57;;
52508;SDS011;38420;53.150;6.370;2022-11-20T03:06:23;27.13;;;16.52;;
52508;SDS011;38420;53.150;6.370;2022-11-20T03:08:49;27.67;;;15.48;;
52508;SDS011;38420;53.150;6.370;2022-11-20T03:11:14;25.65;;;14.60;;
52508;SDS011;38420;53.150;6.370;2022-11-20T03:13:40;26.92;;;15.82;;
52508;SDS011;38420;53.150;6.370;2022-11-20T03:16:06;28.38;;;15.88;;
52508;SDS011;38420;53.150;6.370;2022-11-20T03:18:36;27.08;;;15.45;;
52508;SDS011;38420;53.150;6.370;2022-11-20T03:21:02;26.70;;;15.65;;
52508;SDS011;38420;53.150;6.370;2022-11-20T03:23:29;25.35;;;15.32;;
52508;SDS011;38420;53.150;6.370;2022-11-20T03:25:56;24.80;;;15.82;;
52508;SDS011;38420;53.150;6.370;2022-11-20T03:28:32;25.33;;;14.70;;
52508;SDS011;38420;53.150;6.370;2022-11-20T03:30:57;24.48;;;14.90;;
52508;SDS011;38420;53.150;6.370;2022-11-20T03:33:23;27.40;;;15.77;;
52508;SDS011;38420;53.150;6.370;2022-11-20T03:35:48;27.52;;;16.02;;
52508;SDS011;38420;53.150;6.370;2022-11-20T03:38:14;24.58;;;14.65;;
52508;SDS011;38420;53.150;6.370;2022-11-20T03:40:39;23.13;;;14.55;;
52508;SDS011;38420;53.150;6.370;2022-11-20T03:43:05;27.75;;;16.42;;
52508;SDS011;38420;53.150;6.370;2022-11-20T03:45:30;27.90;;;15.98;;
52508;SDS011;38420;53.150;6.370;2022-11-20T03:47:56;22.92;;;14.90;;
52508;SDS011;38420;53.150;6.370;2022-11-20T03:50:21;24.73;;;14.40;;
52508;SDS011;38420;53.150;6.370;2022-11-20T03:52:47;28.02;;;15.05;;
52508;SDS011;38420;53.150;6.370;2022-11-20T03:55:13;23.70;;;13.82;;
52508;SDS011;38420;53.150;6.370;2022-11-20T03:57:38;24.65;;;14.00;;
52508;SDS011;38420;53.150;6.370;2022-11-20T04:00:04;23.60;;;13.45;;
52508;SDS011;38420;53.150;6.370;2022-11-20T04:02:31;21.05;;;12.65;;
52508;SDS011;38420;53.150;6.370;2022-11-20T04:04:56;19.48;;;12.02;;
52508;SDS011;38420;53.150;6.370;2022-11-20T04:07:22;20.50;;;12.07;;
52508;SDS011;38420;53.150;6.370;2022-11-20T04:09:47;21.08;;;12.15;;
52508;SDS011;38420;53.150;6.370;2022-11-20T04:12:13;22.02;;;12.93;;
52508;SDS011;38420;53.150;6.370;2022-11-20T04:14:39;22.25;;;13.23;;
52508;SDS011;38420;53.150;6.370;2022-11-20T04:17:04;20.40;;;12.32;;
52508;SDS011;38420;53.150;6.370;2022-11-20T04:19:30;20.15;;;11.80;;
52508;SDS011;38420;53.150;6.370;2022-11-20T04:21:55;18.70;;;11.18;;
52508;SDS011;38420;53.150;6.370;2022-11-20T04:24:21;19.77;;;11.32;;
52508;SDS011;38420;53.150;6.370;2022-11-20T04:26:46;17.30;;;10.23;;
52508;SDS011;38420;53.150;6.370;2022-11-20T04:29:12;18.10;;;11.20;;
52508;SDS011;38420;53.150;6.370;2022-11-20T04:31:38;17.42;;;10.68;;
52508;SDS011;38420;53.150;6.370;2022-11-20T04:34:05;16.55;;;10.27;;
52508;SDS011;38420;53.150;6.370;2022-11-20T04:36:32;17.85;;;11.00;;
52508;SDS011;38420;53.150;6.370;2022-11-20T04:38:59;17.75;;;10.43;;
52508;SDS011;38420;53.150;6.370;2022-11-20T04:41:27;19.05;;;10.95;;
52508;SDS011;38420;53.150;6.370;2022-11-20T04:43:55;17.15;;;10.20;;
52508;SDS011;38420;53.150;6.370;2022-11-20T04:46:24;18.30;;;10.45;;
52508;SDS011;38420;53.150;6.370;2022-11-20T04:48:51;17.63;;;10.65;;
52508;SDS011;38420;53.150;6.370;2022-11-20T04:51:16;16.70;;;10.23;;
52508;SDS011;38420;53.150;6.370;2022-11-20T04:53:42;16.70;;;10.38;;
52508;SDS011;38420;53.150;6.370;2022-11-20T04:56:08;17.77;;;11.00;;
52508;SDS011;38420;53.150;6.370;2022-11-20T04:58:36;16.38;;;9.65;;
52508;SDS011;38420;53.150;6.370;2022-11-20T05:01:06;15.82;;;9.73;;
52508;SDS011;38420;53.150;6.370;2022-11-20T05:03:34;15.80;;;9.82;;
52508;SDS011;38420;53.150;6.370;2022-11-20T05:06:00;16.17;;;9.25;;
52508;SDS011;38420;53.150;6.370;2022-11-20T05:08:26;16.95;;;10.35;;
52508;SDS011;38420;53.150;6.370;2022-11-20T05:10:52;20.48;;;11.27;;
52508;SDS011;38420;53.150;6.370;2022-11-20T05:13:18;17.42;;;10.18;;
52508;SDS011;38420;53.150;6.370;2022-11-20T05:15:43;16.83;;;10.90;;
52508;SDS011;38420;53.150;6.370;2022-11-20T05:18:09;16.90;;;10.18;;
52508;SDS011;38420;53.150;6.370;2022-11-20T05:20:34;21.25;;;11.00;;
52508;SDS011;38420;53.150;6.370;2022-11-20T05:23:01;17.50;;;10.02;;
52508;SDS011;38420;53.150;6.370;2022-11-20T05:25:27;17.80;;;10.98;;
52508;SDS011;38420;53.150;6.370;2022-11-20T05:27:52;18.42;;;11.15;;
52508;SDS011;38420;53.150;6.370;2022-11-20T05:30:18;20.17;;;10.57;;
52508;SDS011;38420;53.150;6.370;2022-11-20T05:32:44;18.67;;;10.18;;
52508;SDS011;38420;53.150;6.370;2022-11-20T05:35:10;18.88;;;11.30;;
52508;SDS011;38420;53.150;6.370;2022-11-20T05:37:35;18.55;;;10.75;;
52508;SDS011;38420;53.150;6.370;2022-11-20T05:40:01;18.85;;;10.98;;
52508;SDS011;38420;53.150;6.370;2022-11-20T05:42:29;17.65;;;10.63;;
52508;SDS011;38420;53.150;6.370;2022-11-20T05:44:56;18.80;;;11.27;;
52508;SDS011;38420;53.150;6.370;2022-11-20T05:47:26;20.08;;;11.35;;
52508;SDS011;38420;53.150;6.370;2022-11-20T05:49:53;17.02;;;10.13;;
52508;SDS011;38420;53.150;6.370;2022-11-20T05:52:19;16.90;;;10.07;;
52508;SDS011;38420;53.150;6.370;2022-11-20T05:54:44;16.67;;;10.23;;
52508;SDS011;38420;53.150;6.370;2022-11-20T05:57:10;17.15;;;10.70;;
52508;SDS011;38420;53.150;6.370;2022-11-20T05:59:36;17.92;;;10.13;;
52508;SDS011;38420;53.150;6.370;2022-11-20T06:02:01;19.27;;;10.38;;
52508;SDS011;38420;53.150;6.370;2022-11-20T06:04:27;18.75;;;10.70;;
52508;SDS011;38420;53.150;6.370;2022-11-20T06:06:52;16.52;;;10.40;;
52508;SDS011;38420;53.150;6.370;2022-11-20T06:09:18;18.55;;;10.48;;
52508;SDS011;38420;53.150;6.370;2022-11-20T06:11:43;17.63;;;10.52;;
52508;SDS011;38420;53.150;6.370;2022-11-20T06:14:09;18.42;;;11.07;;
52508;SDS011;38420;53.150;6.370;2022-11-20T06:16:35;19.20;;;10.85;;
52508;SDS011;38420;53.150;6.370;2022-11-20T06:19:00;16.65;;;9.40;;
52508;SDS011;38420;53.150;6.370;2022-11-20T06:21:26;18.63;;;10.20;;
52508;SDS011;38420;53.150;6.370;2022-11-20T06:23:52;19.88;;;11.30;;
52508;SDS011;38420;53.150;6.370;2022-11-20T06:26:22;18.48;;;10.60;;
52508;SDS011;38420;53.150;6.370;2022-11-20T06:28:50;16.98;;;10.43;;
52508;SDS011;38420;53.150;6.370;2022-11-20T06:31:17;18.70;;;10.77;;
52508;SDS011;38420;53.150;6.370;2022-11-20T06:33:44;15.93;;;9.60;;
52508;SDS011;38420;53.150;6.370;2022-11-20T06:36:11;17.02;;;10.80;;
52508;SDS011;38420;53.150;6.370;2022-11-20T06:38:38;16.23;;;10.07;;
52508;SDS011;38420;53.150;6.370;2022-11-20T06:41:05;16.83;;;10.10;;
52508;SDS011;38420;53.150;6.370;2022-11-20T06:43:35;18.05;;;9.82;;
52508;SDS011;38420;53.150;6.370;2022-11-20T06:46:00;18.83;;;11.05;;
52508;SDS011;38420;53.150;6.370;2022-11-20T06:48:27;15.23;;;10.57;;
52508;SDS011;38420;53.150;6.370;2022-11-20T06:50:53;19.52;;;11.55;;
52508;SDS011;38420;53.150;6.370;2022-11-20T06:53:19;18.73;;;11.60;;
52508;SDS011;38420;53.150;6.370;2022-11-20T06:55:45;18.83;;;10.88;;
52508;SDS011;38420;53.150;6.370;2022-11-20T06:58:12;18.20;;;10.98;;
52508;SDS011;38420;53.150;6.370;2022-11-20T07:00:38;19.00;;;10.95;;
52508;SDS011;38420;53.150;6.370;2022-11-20T07:03:04;17.05;;;10.40;;
52508;SDS011;38420;53.150;6.370;2022-11-20T07:05:31;18.13;;;10.75;;
52508;SDS011;38420;53.150;6.370;2022-11-20T07:07:57;17.20;;;10.65;;
52508;SDS011;38420;53.150;6.370;2022-11-20T07:10:23;15.98;;;9.75;;
52508;SDS011;38420;53.150;6.370;2022-11-20T07:12:49;16.05;;;10.50;;
52508;SDS011;38420;53.150;6.370;2022-11-20T07:15:16;18.27;;;10.18;;
52508;SDS011;38420;53.150;6.370;2022-11-20T07:17:46;17.38;;;10.15;;
52508;SDS011;38420;53.150;6.370;2022-11-20T07:20:12;16.73;;;10.15;;
52508;SDS011;38420;53.150;6.370;2022-11-20T07:22:38;19.65;;;10.68;;
52508;SDS011;38420;53.150;6.370;2022-11-20T07:25:04;20.13;;;12.13;;
52508;SDS011;38420;53.150;6.370;2022-11-20T07:27:30;17.88;;;10.65;;
52508;SDS011;38420;53.150;6.370;2022-11-20T07:29:55;17.95;;;11.30;;
52508;SDS011;38420;53.150;6.370;2022-11-20T07:32:21;17.42;;;10.43;;
52508;SDS011;38420;53.150;6.370;2022-11-20T07:34:47;19.05;;;11.85;;
52508;SDS011;38420;53.150;6.370;2022-11-20T07:37:13;17.55;;;11.05;;
52508;SDS011;38420;53.150;6.370;2022-11-20T07:39:39;21.60;;;11.23;;
52508;SDS011;38420;53.150;6.370;2022-11-20T07:42:05;20.60;;;11.15;;
52508;SDS011;38420;53.150;6.370;2022-11-20T07:44:31;18.23;;;11.48;;
52508;SDS011;38420;53.150;6.370;2022-11-20T07:46:57;18.13;;;11.10;;
52508;SDS011;38420;53.150;6.370;2022-11-20T07:49:23;18.83;;;11.52;;
52508;SDS011;38420;53.150;6.370;2022-11-20T07:51:52;18.23;;;11.75;;
52508;SDS011;38420;53.150;6.370;2022-11-20T07:56:46;22.75;;;12.63;;
52508;SDS011;38420;53.150;6.370;2022-11-20T07:59:13;25.30;;;13.18;;
52508;SDS011;38420;53.150;6.370;2022-11-20T08:01:39;20.17;;;12.23;;
52508;SDS011;38420;53.150;6.370;2022-11-20T08:04:05;20.40;;;12.23;;
52508;SDS011;38420;53.150;6.370;2022-11-20T08:06:30;19.02;;;11.23;;
52508;SDS011;38420;53.150;6.370;2022-11-20T08:08:56;20.50;;;11.65;;
52508;SDS011;38420;53.150;6.370;2022-11-20T08:11:22;17.52;;;11.30;;
52508;SDS011;38420;53.150;6.370;2022-11-20T08:14:07;17.92;;;10.30;;
52508;SDS011;38420;53.150;6.370;2022-11-20T08:16:39;16.88;;;10.07;;
52508;SDS011;38420;53.150;6.370;2022-11-20T08:19:06;17.58;;;11.50;;
52508;SDS011;38420;53.150;6.370;2022-11-20T08:21:33;18.73;;;10.75;;
52508;SDS011;38420;53.150;6.370;2022-11-20T08:23:59;16.15;;;10.48;;
52508;SDS011;38420;53.150;6.370;2022-11-20T08:26:25;17.55;;;11.20;;
52508;SDS011;38420;53.150;6.370;2022-11-20T08:28:55;19.65;;;11.38;;
52508;SDS011;38420;53.150;6.370;2022-11-20T08:31:21;20.30;;;11.68;;
52508;SDS011;38420;53.150;6.370;2022-11-20T08:33:49;19.63;;;12.10;;
52508;SDS011;38420;53.150;6.370;2022-11-20T08:36:15;18.75;;;10.77;;
52508;SDS011;38420;53.150;6.370;2022-11-20T08:38:41;20.10;;;11.25;;
52508;SDS011;38420;53.150;6.370;2022-11-20T08:41:07;18.25;;;11.00;;
52508;SDS011;38420;53.150;6.370;2022-11-20T08:46:18;19.95;;;11.98;;
52508;SDS011;38420;53.150;6.370;2022-11-20T08:48:44;16.38;;;9.90;;
52508;SDS011;38420;53.150;6.370;2022-11-20T08:51:10;17.58;;;10.75;;
52508;SDS011;38420;53.150;6.370;2022-11-20T08:53:37;16.63;;;10.55;;
52508;SDS011;38420;53.150;6.370;2022-11-20T08:56:03;16.63;;;10.52;;
52508;SDS011;38420;53.150;6.370;2022-11-20T08:58:29;18.48;;;11.35;;
52508;SDS011;38420;53.150;6.370;2022-11-20T09:00:55;19.10;;;11.32;;
52508;SDS011;38420;53.150;6.370;2022-11-20T09:03:20;19.92;;;11.88;;
52508;SDS011;38420;53.150;6.370;2022-11-20T09:05:46;20.88;;;12.27;;
52508;SDS011;38420;53.150;6.370;2022-11-20T09:08:11;21.67;;;12.38;;
52508;SDS011;38420;53.150;6.370;2022-11-20T09:10:37;15.80;;;10.77;;
52508;SDS011;38420;53.150;6.370;2022-11-20T09:13:04;19.05;;;10.90;;
52508;SDS011;38420;53.150;6.370;2022-11-20T09:15:30;19.45;;;12.05;;
52508;SDS011;38420;53.150;6.370;2022-11-20T09:17:57;17.50;;;11.15;;
52508;SDS011;38420;53.150;6.370;2022-11-20T09:20:25;18.98;;;11.48;;
52508;SDS011;38420;53.150;6.370;2022-11-20T09:22:53;19.00;;;11.18;;
52508;SDS011;38420;53.150;6.370;2022-11-20T09:25:19;19.33;;;11.38;;
52508;SDS011;38420;53.150;6.370;2022-11-20T09:27:45;17.15;;;10.98;;
52508;SDS011;38420;53.150;6.370;2022-11-20T09:30:12;21.98;;;12.13;;
52508;SDS011;38420;53.150;6.370;2022-11-20T09:32:38;18.20;;;11.25;;
52508;SDS011;38420;53.150;6.370;2022-11-20T09:35:05;20.27;;;11.55;;
52508;SDS011;38420;53.150;6.370;2022-11-20T09:37:30;20.67;;;13.85;;
52508;SDS011;38420;53.150;6.370;2022-11-20T09:39:56;15.88;;;9.75;;
52508;SDS011;38420;53.150;6.370;2022-11-20T09:45:01;16.10;;;9.60;;
52508;SDS011;38420;53.150;6.370;2022-11-20T09:50:58;17.05;;;10.13;;
52508;SDS011;38420;53.150;6.370;2022-11-20T09:56:12;16.90;;;10.05;;
52508;SDS011;38420;53.150;6.370;2022-11-20T09:58:43;16.77;;;10.38;;
52508;SDS011;38420;53.150;6.370;2022-11-20T10:01:14;18.05;;;10.38;;
52508;SDS011;38420;53.150;6.370;2022-11-20T10:03:45;14.90;;;8.98;;
52508;SDS011;38420;53.150;6.370;2022-11-20T10:06:17;14.68;;;9.57;;
52508;SDS011;38420;53.150;6.370;2022-11-20T10:08:53;16.00;;;9.77;;
52508;SDS011;38420;53.150;6.370;2022-11-20T10:16:53;17.88;;;11.02;;
52508;SDS011;38420;53.150;6.370;2022-11-20T10:27:56;17.02;;;10.27;;
52508;SDS011;38420;53.150;6.370;2022-11-20T10:30:46;16.87;;;10.00;;
52508;SDS011;38420;53.150;6.370;2022-11-20T10:33:22;17.65;;;10.52;;
52508;SDS011;38420;53.150;6.370;2022-11-20T10:35:52;17.08;;;10.52;;
52508;SDS011;38420;53.150;6.370;2022-11-20T10:38:21;19.60;;;11.23;;
52508;SDS011;38420;53.150;6.370;2022-11-20T10:40:54;18.77;;;11.25;;
52508;SDS011;38420;53.150;6.370;2022-11-20T10:43:41;19.90;;;11.90;;
52508;SDS011;38420;53.150;6.370;2022-11-20T10:46:09;18.10;;;10.93;;
52508;SDS011;38420;53.150;6.370;2022-11-20T10:48:40;17.13;;;11.40;;
52508;SDS011;38420;53.150;6.370;2022-11-20T10:51:24;17.33;;;11.25;;
52508;SDS011;38420;53.150;6.370;2022-11-20T10:53:57;22.80;;;15.05;;
52508;SDS011;38420;53.150;6.370;2022-11-20T10:56:46;19.77;;;12.32;;
52508;SDS011;38420;53.150;6.370;2022-11-20T11:02:21;17.65;;;12.00;;
52508;SDS011;38420;53.150;6.370;2022-11-20T11:04:51;19.42;;;10.98;;
52508;SDS011;38420;53.150;6.370;2022-11-20T11:07:22;21.63;;;12.77;;
52508;SDS011;38420;53.150;6.370;2022-11-20T11:09:53;18.52;;;11.60;;
52508;SDS011;38420;53.150;6.370;2022-11-20T11:12:21;19.20;;;11.23;;
52508;SDS011;38420;53.150;6.370;2022-11-20T11:14:49;19.35;;;10.38;;
52508;SDS011;38420;53.150;6.370;2022-11-20T11:17:30;16.83;;;10.50;;
52508;SDS011;38420;53.150;6.370;2022-11-20T11:20:01;16.77;;;10.75;;
52508;SDS011;38420;53.150;6.370;2022-11-20T11:22:46;19.38;;;11.43;;
52508;SDS011;38420;53.150;6.370;2022-11-20T11:25:27;16.55;;;9.75;;
52508;SDS011;38420;53.150;6.370;2022-11-20T11:28:02;16.63;;;10.65;;
52508;SDS011;38420;53.150;6.370;2022-11-20T11:30:29;16.92;;;8.88;;
52508;SDS011;38420;53.150;6.370;2022-11-20T11:33:06;14.88;;;9.70;;
52508;SDS011;38420;53.150;6.370;2022-11-20T11:35:39;12.75;;;8.52;;
52508;SDS011;38420;53.150;6.370;2022-11-20T11:38:12;13.88;;;8.60;;
52508;SDS011;38420;53.150;6.370;2022-11-20T11:40:41;13.55;;;7.95;;
52508;SDS011;38420;53.150;6.370;2022-11-20T11:43:16;10.50;;;7.28;;
52508;SDS011;38420;53.150;6.370;2022-11-20T11:46:04;13.38;;;8.38;;
52508;SDS011;38420;53.150;6.370;2022-11-20T11:48:57;16.75;;;9.70;;
52508;SDS011;38420;53.150;6.370;2022-11-20T11:54:34;12.45;;;8.13;;
52508;SDS011;38420;53.150;6.370;2022-11-20T11:57:10;10.90;;;7.45;;
52508;SDS011;38420;53.150;6.370;2022-11-20T12:00:08;10.05;;;6.15;;
52508;SDS011;38420;53.150;6.370;2022-11-20T12:03:00;9.45;;;6.40;;
52508;SDS011;38420;53.150;6.370;2022-11-20T12:05:28;11.32;;;6.45;;
52508;SDS011;38420;53.150;6.370;2022-11-20T12:10:55;11.45;;;6.95;;
52508;SDS011;38420;53.150;6.370;2022-11-20T12:13:34;12.00;;;6.35;;
52508;SDS011;38420;53.150;6.370;2022-11-20T12:16:14;8.55;;;5.53;;
52508;SDS011;38420;53.150;6.370;2022-11-20T12:18:42;10.02;;;5.65;;
52508;SDS011;38420;53.150;6.370;2022-11-20T12:26:57;7.70;;;5.20;;
52508;SDS011;38420;53.150;6.370;2022-11-20T12:34:56;8.85;;;5.78;;
52508;SDS011;38420;53.150;6.370;2022-11-20T12:40:50;9.25;;;6.30;;
52508;SDS011;38420;53.150;6.370;2022-11-20T12:46:08;9.45;;;6.10;;
52508;SDS011;38420;53.150;6.370;2022-11-20T12:49:02;8.68;;;6.03;;
52508;SDS011;38420;53.150;6.370;2022-11-20T12:54:32;9.27;;;6.35;;
52508;SDS011;38420;53.150;6.370;2022-11-20T12:57:24;9.73;;;6.38;;
52508;SDS011;38420;53.150;6.370;2022-11-20T13:00:11;10.48;;;6.53;;
52508;SDS011;38420;53.150;6.370;2022-11-20T13:02:58;9.88;;;6.25;;
52508;SDS011;38420;53.150;6.370;2022-11-20T13:08:27;8.52;;;5.70;;
52508;SDS011;38420;53.150;6.370;2022-11-20T13:17:16;9.15;;;6.22;;
52508;SDS011;38420;53.150;6.370;2022-11-20T13:19:53;8.50;;;5.72;;
52508;SDS011;38420;53.150;6.370;2022-11-20T13:24:53;9.90;;;6.07;;
52508;SDS011;38420;53.150;6.370;2022-11-20T13:27:20;10.65;;;6.00;;
52508;SDS011;38420;53.150;6.370;2022-11-20T13:32:53;9.73;;;6.07;;
52508;SDS011;38420;53.150;6.370;2022-11-20T13:35:28;10.68;;;6.38;;
52508;SDS011;38420;53.150;6.370;2022-11-20T13:38:18;10.50;;;6.55;;
52508;SDS011;38420;53.150;6.370;2022-11-20T13:40:56;9.85;;;6.55;;
52508;SDS011;38420;53.150;6.370;2022-11-20T13:43:42;7.80;;;5.38;;
52508;SDS011;38420;53.150;6.370;2022-11-20T13:46:09;7.93;;;5.65;;
52508;SDS011;38420;53.150;6.370;2022-11-20T13:48:39;8.60;;;5.95;;
52508;SDS011;38420;53.150;6.370;2022-11-20T13:56:40;8.68;;;5.85;;
52508;SDS011;38420;53.150;6.370;2022-11-20T13:59:24;9.88;;;6.65;;
52508;SDS011;38420;53.150;6.370;2022-11-20T14:01:56;9.18;;;5.40;;
52508;SDS011;38420;53.150;6.370;2022-11-20T14:04:26;10.80;;;5.85;;
52508;SDS011;38420;53.150;6.370;2022-11-20T14:06:57;10.07;;;6.10;;
52508;SDS011;38420;53.150;6.370;2022-11-20T14:09:25;8.80;;;5.82;;
52508;SDS011;38420;53.150;6.370;2022-11-20T14:11:52;7.88;;;5.00;;
52508;SDS011;38420;53.150;6.370;2022-11-20T14:14:19;8.25;;;5.20;;
52508;SDS011;38420;53.150;6.370;2022-11-20T14:16:46;9.00;;;5.78;;
52508;SDS011;38420;53.150;6.370;2022-11-20T14:21:44;16.77;;;9.25;;
52508;SDS011;38420;53.150;6.370;2022-11-20T14:24:14;17.10;;;12.55;;
52508;SDS011;38420;53.150;6.370;2022-11-20T14:26:45;13.70;;;8.65;;
52508;SDS011;38420;53.150;6.370;2022-11-20T14:29:13;8.60;;;6.25;;
52508;SDS011;38420;53.150;6.370;2022-11-20T14:31:47;11.13;;;6.55;;
52508;SDS011;38420;53.150;6.370;2022-11-20T14:34:26;8.90;;;5.28;;
52508;SDS011;38420;53.150;6.370;2022-11-20T14:37:01;9.45;;;6.30;;
52508;SDS011;38420;53.150;6.370;2022-11-20T14:39:31;9.70;;;6.05;;
52508;SDS011;38420;53.150;6.370;2022-11-20T14:41:59;10.27;;;5.95;;
52508;SDS011;38420;53.150;6.370;2022-11-20T14:44:34;9.23;;;5.47;;
52508;SDS011;38420;53.150;6.370;2022-11-20T14:47:01;10.43;;;6.72;;
52508;SDS011;38420;53.150;6.370;2022-11-20T14:49:29;9.95;;;5.82;;
52508;SDS011;38420;53.150;6.370;2022-11-20T14:52:00;9.52;;;5.97;;
52508;SDS011;38420;53.150;6.370;2022-11-20T14:54:28;8.48;;;6.03;;
52508;SDS011;38420;53.150;6.370;2022-11-20T14:56:58;9.77;;;6.35;;
52508;SDS011;38420;53.150;6.370;2022-11-20T15:01:54;8.98;;;5.80;;
52508;SDS011;38420;53.150;6.370;2022-11-20T15:04:22;10.70;;;6.20;;
52508;SDS011;38420;53.150;6.370;2022-11-20T15:06:49;11.13;;;5.78;;
52508;SDS011;38420;53.150;6.370;2022-11-20T15:09:17;10.05;;;6.22;;
52508;SDS011;38420;53.150;6.370;2022-11-20T15:11:56;17.80;;;13.48;;
52508;SDS011;38420;53.150;6.370;2022-11-20T15:14:25;97.07;;;41.28;;
52508;SDS011;38420;53.150;6.370;2022-11-20T15:16:52;41.60;;;21.35;;
52508;SDS011;38420;53.150;6.370;2022-11-20T15:19:20;19.67;;;11.90;;
52508;SDS011;38420;53.150;6.370;2022-11-20T15:21:47;15.02;;;9.55;;
52508;SDS011;38420;53.150;6.370;2022-11-20T15:24:13;11.02;;;7.75;;
52508;SDS011;38420;53.150;6.370;2022-11-20T15:26:39;11.30;;;7.68;;
52508;SDS011;38420;53.150;6.370;2022-11-20T15:29:11;14.18;;;9.00;;
52508;SDS011;38420;53.150;6.370;2022-11-20T15:31:38;13.65;;;7.97;;
52508;SDS011;38420;53.150;6.370;2022-11-20T15:34:13;13.40;;;7.85;;
52508;SDS011;38420;53.150;6.370;2022-11-20T15:36:40;14.50;;;8.13;;
52508;SDS011;38420;53.150;6.370;2022-11-20T15:39:06;12.73;;;7.85;;
52508;SDS011;38420;53.150;6.370;2022-11-20T15:41:36;11.80;;;7.45;;
52508;SDS011;38420;53.150;6.370;2022-11-20T15:44:03;10.23;;;6.53;;
52508;SDS011;38420;53.150;6.370;2022-11-20T15:46:30;11.75;;;7.03;;
52508;SDS011;38420;53.150;6.370;2022-11-20T15:49:02;13.25;;;7.32;;
52508;SDS011;38420;53.150;6.370;2022-11-20T15:51:33;11.75;;;7.32;;
52508;SDS011;38420;53.150;6.370;2022-11-20T15:54:00;13.48;;;8.52;;
52508;SDS011;38420;53.150;6.370;2022-11-20T15:56:28;14.65;;;8.93;;
52508;SDS011;38420;53.150;6.370;2022-11-20T15:58:54;13.25;;;8.52;;
52508;SDS011;38420;53.150;6.370;2022-11-20T16:01:20;12.75;;;8.30;;
52508;SDS011;38420;53.150;6.370;2022-11-20T16:03:47;13.65;;;9.20;;
52508;SDS011;38420;53.150;6.370;2022-11-20T16:06:13;13.52;;;8.70;;